createdAt,value
2018-03-11T00:01:18.333Z,17.70
2018-03-11T00:03:46.158Z,17.43
2018-03-11T00:06:13.703Z,17.97
2018-03-11T00:08:41.459Z,16.60
2018-03-11T00:11:09.082Z,20.23
2018-03-11T00:13:37.396Z,17.30
2018-03-11T00:16:05.304Z,22.47
2018-03-11T00:18:32.864Z,17.03
2018-03-11T00:21:00.439Z,16.80
2018-03-11T00:23:27.954Z,17.60
2018-03-11T00:25:56.443Z,18.13
2018-03-11T00:28:24.035Z,18.50
2018-03-11T00:30:51.983Z,18.13
2018-03-11T00:33:19.724Z,18.13
2018-03-11T00:35:47.227Z,22.03
2018-03-11T00:38:14.840Z,17.23
2018-03-11T00:40:42.454Z,19.00
2018-03-11T00:43:09.997Z,17.47
2018-03-11T00:45:37.512Z,19.10
2018-03-11T00:48:05.164Z,17.90
2018-03-11T00:50:33.547Z,28.83
2018-03-11T00:53:01.128Z,26.30
2018-03-11T00:55:28.692Z,21.07
2018-03-11T00:57:56.286Z,17.70
2018-03-11T01:00:23.866Z,17.03
2018-03-11T01:02:53.477Z,17.47
2018-03-11T01:05:21.807Z,17.83
2018-03-11T01:07:49.361Z,15.77
2018-03-11T01:10:16.886Z,19.40
2018-03-11T01:12:45.165Z,16.90
2018-03-11T01:15:14.087Z,19.83
2018-03-11T01:17:41.840Z,17.43
2018-03-11T01:20:09.379Z,21.73
2018-03-11T01:22:37.210Z,17.43
2018-03-11T01:25:04.763Z,17.60
2018-03-11T01:27:32.287Z,16.13
2018-03-11T01:29:59.795Z,15.90
2018-03-11T01:32:27.426Z,17.47
2018-03-11T01:34:54.922Z,17.80
2018-03-11T01:37:23.246Z,17.43
2018-03-11T01:39:50.942Z,16.70
2018-03-11T01:42:18.563Z,20.27
2018-03-11T01:44:46.263Z,17.27
2018-03-11T01:47:13.784Z,24.10
2018-03-11T01:49:41.284Z,18.43
2018-03-11T01:52:08.832Z,19.73
2018-03-11T01:54:36.339Z,17.00
2018-03-11T01:57:03.866Z,21.23
2018-03-11T01:59:31.397Z,18.90
2018-03-11T02:01:58.955Z,17.50
2018-03-11T02:04:26.562Z,17.80
2018-03-11T02:06:54.690Z,17.57
2018-03-11T02:09:22.237Z,17.30
2018-03-11T02:11:49.781Z,25.67
2018-03-11T02:14:17.484Z,34.97
2018-03-11T02:16:44.981Z,16.40
2018-03-11T02:19:13.122Z,17.77
2018-03-11T02:21:41.433Z,20.77
2018-03-11T02:24:09.057Z,20.50
2018-03-11T02:26:36.692Z,25.80
2018-03-11T02:29:04.225Z,27.13
2018-03-11T02:31:31.891Z,21.27
2018-03-11T02:33:59.414Z,21.17
2018-03-11T02:36:26.937Z,17.77
2018-03-11T02:38:54.489Z,19.53
2018-03-11T02:41:22.145Z,19.13
2018-03-11T02:43:49.648Z,20.43
2018-03-11T02:46:17.172Z,19.43
2018-03-11T02:48:45.471Z,18.67
2018-03-11T02:51:13.000Z,19.97
2018-03-11T02:53:40.525Z,19.23
2018-03-11T02:56:08.864Z,18.87
2018-03-11T02:58:36.386Z,20.20
2018-03-11T03:01:04.287Z,19.30
2018-03-11T03:03:31.789Z,19.10
2018-03-11T03:05:59.679Z,19.83
2018-03-11T03:08:27.245Z,17.80
2018-03-11T03:10:55.251Z,22.17
2018-03-11T03:13:23.202Z,19.13
2018-03-11T03:15:50.724Z,18.43
2018-03-11T03:18:18.281Z,18.20
2018-03-11T03:20:46.104Z,20.97
2018-03-11T03:23:14.073Z,20.33
2018-03-11T03:25:41.672Z,22.03
2018-03-11T03:28:09.254Z,21.13
2018-03-11T03:30:36.846Z,20.17
2018-03-11T03:33:04.417Z,20.27
2018-03-11T03:35:31.933Z,21.57
2018-03-11T03:37:59.482Z,19.33
2018-03-11T03:40:27.498Z,21.10
2018-03-11T03:42:55.158Z,21.90
2018-03-11T03:45:22.932Z,20.50
2018-03-11T03:47:50.504Z,23.13
2018-03-11T03:50:18.038Z,20.10
2018-03-11T03:52:45.551Z,20.93
2018-03-11T03:55:13.875Z,21.77
2018-03-11T03:57:41.436Z,20.67
2018-03-11T04:00:08.983Z,21.80
2018-03-11T04:02:36.899Z,20.03
2018-03-11T04:05:04.406Z,22.63
2018-03-11T04:07:32.078Z,21.87
2018-03-11T04:09:59.626Z,22.53
2018-03-11T04:12:27.202Z,23.17
2018-03-11T04:14:54.745Z,21.67
2018-03-11T04:17:22.324Z,25.57
2018-03-11T04:19:49.847Z,22.53
2018-03-11T04:22:18.727Z,21.77
2018-03-11T04:24:46.246Z,25.63
2018-03-11T04:27:13.758Z,22.33
2018-03-11T04:29:42.174Z,23.83
2018-03-11T04:32:09.744Z,24.17
2018-03-11T04:34:37.818Z,26.90
2018-03-11T04:37:05.648Z,22.63
2018-03-11T04:39:33.911Z,24.97
2018-03-11T04:42:01.438Z,24.93
2018-03-11T04:44:28.964Z,24.33
2018-03-11T04:46:56.506Z,23.23
2018-03-11T04:49:24.112Z,25.80
2018-03-11T04:51:51.782Z,25.13
2018-03-11T04:54:20.823Z,25.83
2018-03-11T04:56:48.331Z,24.57
2018-03-11T04:59:16.044Z,26.13
2018-03-11T05:01:43.758Z,26.00
2018-03-11T05:04:11.349Z,28.37
2018-03-11T05:06:39.647Z,25.00
2018-03-11T05:09:07.326Z,26.23
2018-03-11T05:11:35.188Z,26.90
2018-03-11T05:14:02.807Z,24.57
2018-03-11T05:16:30.320Z,27.07
2018-03-11T05:18:57.846Z,25.63
2018-03-11T05:21:26.302Z,28.07
2018-03-11T05:23:54.029Z,27.53
2018-03-11T05:26:21.613Z,27.30
2018-03-11T05:28:49.167Z,29.37
2018-03-11T05:31:16.797Z,26.63
2018-03-11T05:33:44.297Z,29.70
2018-03-11T05:36:11.843Z,27.53
2018-03-11T05:38:39.343Z,30.33
2018-03-11T05:41:07.623Z,25.53
2018-03-11T05:43:35.147Z,27.23
2018-03-11T05:46:02.699Z,27.23
2018-03-11T05:48:30.536Z,25.87
2018-03-11T05:50:58.094Z,25.13
2018-03-11T05:53:25.677Z,26.57
2018-03-11T05:55:54.027Z,20.33
2018-03-11T05:58:21.552Z,19.13
2018-03-11T06:00:49.916Z,17.43
2018-03-11T06:03:17.426Z,15.30
2018-03-11T06:05:45.888Z,15.07
2018-03-11T06:08:14.184Z,15.67
2018-03-11T06:10:41.961Z,14.80
2018-03-11T06:13:09.548Z,15.13
2018-03-11T06:15:37.171Z,12.97
2018-03-11T06:18:06.692Z,14.77
2018-03-11T06:20:34.135Z,13.13
2018-03-11T06:23:01.831Z,13.07
2018-03-11T06:25:29.386Z,14.73
2018-03-11T06:27:57.145Z,13.57
2018-03-11T06:30:24.680Z,14.53
2018-03-11T06:32:52.292Z,16.37
2018-03-11T06:35:19.828Z,21.13
2018-03-11T06:37:47.408Z,15.13
2018-03-11T06:40:14.994Z,14.63
2018-03-11T06:42:43.339Z,12.80
2018-03-11T06:45:10.971Z,13.03
2018-03-11T06:47:38.651Z,12.03
2018-03-11T06:50:06.160Z,13.47
2018-03-11T06:52:34.584Z,13.70
2018-03-11T06:55:02.108Z,15.10
2018-03-11T06:57:29.734Z,13.60
2018-03-11T06:59:57.369Z,13.67
2018-03-11T07:02:24.961Z,21.03
2018-03-11T07:04:52.470Z,12.53
2018-03-11T07:07:20.135Z,12.67
2018-03-11T07:09:47.848Z,13.93
2018-03-11T07:12:15.487Z,13.00
2018-03-11T07:14:43.023Z,12.93
2018-03-11T07:17:10.667Z,13.63
2018-03-11T07:19:39.202Z,14.43
2018-03-11T07:22:06.818Z,13.90
2018-03-11T07:24:34.308Z,13.53
2018-03-11T07:27:01.873Z,14.67
2018-03-11T07:29:29.460Z,28.23
2018-03-11T07:31:57.173Z,20.77
2018-03-11T07:34:24.898Z,15.03
2018-03-11T07:36:52.433Z,15.63
2018-03-11T07:39:19.996Z,13.93
2018-03-11T07:41:48.371Z,13.67
2018-03-11T07:44:15.927Z,14.10
2018-03-11T07:46:43.591Z,14.07
2018-03-11T07:49:11.492Z,15.03
2018-03-11T07:51:38.993Z,15.77
2018-03-11T07:54:06.580Z,15.53
2018-03-11T07:56:34.112Z,17.03
2018-03-11T07:59:01.676Z,16.17
2018-03-11T08:01:29.645Z,15.40
2018-03-11T08:03:57.292Z,17.60
2018-03-11T08:06:24.792Z,17.60
2018-03-11T08:08:52.729Z,17.43
2018-03-11T08:11:20.258Z,16.93
2018-03-11T08:13:47.812Z,17.87
2018-03-11T08:16:15.347Z,17.33
2018-03-11T08:18:42.911Z,17.03
2018-03-11T08:21:10.544Z,17.00
2018-03-11T08:23:38.160Z,17.10
2018-03-11T08:26:05.710Z,16.47
2018-03-11T08:28:33.432Z,17.10
2018-03-11T08:31:00.938Z,17.10
2018-03-11T08:33:29.227Z,16.97
2018-03-11T08:35:57.161Z,17.93
2018-03-11T08:38:24.708Z,17.67
2018-03-11T08:40:52.755Z,18.10
2018-03-11T08:43:20.405Z,18.23
2018-03-11T08:45:48.045Z,17.30
2018-03-11T08:48:16.888Z,17.80
2018-03-11T08:50:44.404Z,16.83
2018-03-11T08:53:12.100Z,17.73
2018-03-11T08:55:39.658Z,17.63
2018-03-11T08:58:07.313Z,18.97
2018-03-11T09:00:34.837Z,25.63
2018-03-11T09:03:02.405Z,20.20
2018-03-11T09:05:29.956Z,19.97
2018-03-11T09:07:57.495Z,18.63
2018-03-11T09:10:25.342Z,17.03
2018-03-11T09:12:53.482Z,17.50
2018-03-11T09:15:21.043Z,18.33
2018-03-11T09:17:48.561Z,17.63
2018-03-11T09:20:17.085Z,18.50
2018-03-11T09:22:44.748Z,18.43
2018-03-11T09:25:12.350Z,19.30
2018-03-11T09:27:40.459Z,25.13
2018-03-11T09:30:08.348Z,18.00
2018-03-11T09:32:36.178Z,18.80
2018-03-11T09:35:03.729Z,16.80
2018-03-11T09:37:31.313Z,17.87
2018-03-11T09:39:59.818Z,17.90
2018-03-11T09:42:27.351Z,17.53
2018-03-11T09:44:54.920Z,17.73
2018-03-11T09:47:22.571Z,18.50
2018-03-11T09:49:50.956Z,18.07
2018-03-11T09:52:18.859Z,17.03
2018-03-11T09:54:46.414Z,16.87
2018-03-11T09:57:13.981Z,16.23
2018-03-11T09:59:41.527Z,16.33
2018-03-11T10:02:09.096Z,17.47
2018-03-11T10:04:36.668Z,14.00
2018-03-11T10:07:04.285Z,13.77
2018-03-11T10:09:31.900Z,14.13
2018-03-11T10:11:59.622Z,16.27
2018-03-11T10:14:27.320Z,16.17
2018-03-11T10:16:54.924Z,13.67
2018-03-11T10:19:22.722Z,15.07
2018-03-11T10:21:50.460Z,13.17
2018-03-11T10:24:18.160Z,14.97
2018-03-11T10:26:45.659Z,13.40
2018-03-11T10:29:15.088Z,13.20
2018-03-11T10:31:42.650Z,11.87
2018-03-11T10:34:10.242Z,11.37
2018-03-11T10:36:37.739Z,11.43
2018-03-11T10:39:05.328Z,11.57
2018-03-11T10:41:32.874Z,11.63
2018-03-11T10:44:00.518Z,12.53
2018-03-11T10:46:29.063Z,9.67
2018-03-11T10:48:56.636Z,11.00
2018-03-11T10:51:24.224Z,9.40
2018-03-11T10:53:52.155Z,10.47
2018-03-11T10:56:19.795Z,9.80
2018-03-11T10:58:47.314Z,9.77
2018-03-11T11:01:14.854Z,10.70
2018-03-11T11:03:48.347Z,9.93
2018-03-11T11:06:15.928Z,10.03
2018-03-11T11:08:43.851Z,9.17
2018-03-11T11:11:11.521Z,9.30
2018-03-11T11:13:39.104Z,8.17
2018-03-11T11:16:07.020Z,7.97
2018-03-11T11:18:34.687Z,8.30
2018-03-11T11:21:02.284Z,8.57
2018-03-11T11:23:29.783Z,7.87
2018-03-11T11:25:57.533Z,8.63
2018-03-11T11:28:25.052Z,8.03
2018-03-11T11:30:52.637Z,9.10
2018-03-11T11:33:20.182Z,8.70
2018-03-11T11:35:48.183Z,8.53
2018-03-11T11:38:16.357Z,8.70
2018-03-11T11:40:43.911Z,8.50
2018-03-11T11:43:11.936Z,8.57
2018-03-11T11:45:39.471Z,9.23
2018-03-11T11:48:07.373Z,9.60
2018-03-11T11:50:34.973Z,10.00
2018-03-11T11:53:04.006Z,11.70
2018-03-11T11:55:31.753Z,13.40
2018-03-11T11:57:59.286Z,11.67
2018-03-11T12:00:26.936Z,13.07
2018-03-11T12:02:54.581Z,13.10
2018-03-11T12:05:22.183Z,17.40
2018-03-11T12:07:49.815Z,11.27
2018-03-11T12:10:17.633Z,17.83
2018-03-11T12:12:45.458Z,11.70
2018-03-11T12:15:13.977Z,12.23
2018-03-11T12:17:42.456Z,11.50
2018-03-11T12:20:14.245Z,10.53
2018-03-11T12:22:41.805Z,10.87
2018-03-11T12:25:09.393Z,11.17
2018-03-11T12:27:37.216Z,10.97
2018-03-11T12:30:05.036Z,10.90
2018-03-11T12:32:32.603Z,9.40
2018-03-11T12:35:00.279Z,9.13
2018-03-11T12:37:28.704Z,9.37
2018-03-11T12:39:57.882Z,9.90
2018-03-11T12:42:25.781Z,9.03
2018-03-11T12:44:53.765Z,8.87
2018-03-11T12:47:21.348Z,7.20
2018-03-11T12:49:48.953Z,6.47
2018-03-11T12:52:16.556Z,7.03
2018-03-11T12:54:44.956Z,7.27
2018-03-11T12:57:13.292Z,7.43
2018-03-11T12:59:40.849Z,9.60
2018-03-11T13:02:08.638Z,7.73
2018-03-11T13:04:36.171Z,8.60
2018-03-11T13:07:03.865Z,8.03
2018-03-11T13:09:31.400Z,6.70
2018-03-11T13:11:59.114Z,7.30
2018-03-11T13:14:27.465Z,7.73
2018-03-11T13:16:55.023Z,7.27
2018-03-11T13:19:22.695Z,6.23
2018-03-11T13:21:50.265Z,5.87
2018-03-11T13:24:17.972Z,6.40
2018-03-11T13:26:45.544Z,7.43
2018-03-11T13:29:13.205Z,7.53
2018-03-11T13:31:40.806Z,7.37
2018-03-11T13:34:14.228Z,6.30
2018-03-11T13:36:41.965Z,6.60
2018-03-11T13:39:21.435Z,7.73
2018-03-11T13:41:49.080Z,7.60
2018-03-11T13:44:16.628Z,7.10
2018-03-11T13:46:56.880Z,7.57
2018-03-11T13:49:25.978Z,7.07
2018-03-11T13:52:05.317Z,8.77
2018-03-11T13:54:33.289Z,7.30
2018-03-11T13:57:12.935Z,8.60
2018-03-11T13:59:40.547Z,8.07
2018-03-11T14:02:08.264Z,7.37
2018-03-11T14:04:35.914Z,7.40
2018-03-11T14:07:03.474Z,7.07
2018-03-11T14:09:31.044Z,7.00
2018-03-11T14:11:58.592Z,6.70
2018-03-11T14:14:26.488Z,6.80
2018-03-11T14:16:54.042Z,7.20
2018-03-11T14:19:21.587Z,8.27
2018-03-11T14:21:49.144Z,6.83
2018-03-11T14:24:16.966Z,5.93
2018-03-11T14:26:44.565Z,6.63
2018-03-11T14:29:12.169Z,7.00
2018-03-11T14:31:39.786Z,6.97
2018-03-11T14:34:07.448Z,7.40
2018-03-11T14:36:35.009Z,6.63
2018-03-11T14:39:02.737Z,6.07
2018-03-11T14:41:30.302Z,6.50
2018-03-11T14:43:57.973Z,6.60
2018-03-11T14:46:25.529Z,6.93
2018-03-11T14:48:53.119Z,6.83
2018-03-11T14:51:20.687Z,7.37
2018-03-11T14:53:48.573Z,7.03
2018-03-11T14:56:16.154Z,7.90
2018-03-11T14:58:44.482Z,8.93
2018-03-11T15:01:11.996Z,7.47
2018-03-11T15:03:40.272Z,7.07
2018-03-11T15:06:07.983Z,6.53
2018-03-11T15:08:36.321Z,7.03
2018-03-11T15:11:04.110Z,6.50
2018-03-11T15:13:31.683Z,6.97
2018-03-11T15:15:59.213Z,6.10
2018-03-11T15:18:26.766Z,5.93
2018-03-11T15:20:54.617Z,6.97
2018-03-11T15:23:22.957Z,6.73
2018-03-11T15:25:51.245Z,6.80
2018-03-11T15:28:18.882Z,6.63
2018-03-11T15:30:46.512Z,5.80
2018-03-11T15:33:14.247Z,6.97
2018-03-11T15:35:43.739Z,6.70
2018-03-11T15:38:12.814Z,7.00
2018-03-11T15:40:40.537Z,7.07
2018-03-11T15:43:08.046Z,7.80
2018-03-11T15:45:35.580Z,7.73
2018-03-11T15:48:03.109Z,7.40
2018-03-11T15:50:31.005Z,8.57
2018-03-11T15:52:59.029Z,7.70
2018-03-11T15:55:27.390Z,7.80
2018-03-11T15:57:56.167Z,8.47
2018-03-11T16:00:24.206Z,8.13
2018-03-11T16:02:51.867Z,7.70
2018-03-11T16:05:19.485Z,8.17
2018-03-11T16:07:48.198Z,8.97
2018-03-11T16:10:15.782Z,8.13
2018-03-11T16:12:43.677Z,7.23
2018-03-11T16:15:12.088Z,7.43
2018-03-11T16:17:39.629Z,7.97
2018-03-11T16:20:07.979Z,7.60
2018-03-11T16:22:35.502Z,7.97
2018-03-11T16:25:03.495Z,8.33
2018-03-11T16:27:31.096Z,8.00
2018-03-11T16:29:58.972Z,9.93
2018-03-11T16:32:27.486Z,8.20
2018-03-11T16:34:55.040Z,7.53
2018-03-11T16:37:22.720Z,8.40
2018-03-11T16:39:50.672Z,8.33
2018-03-11T16:42:18.189Z,9.13
2018-03-11T16:44:45.777Z,8.13
2018-03-11T16:47:14.566Z,8.33
2018-03-11T16:49:43.050Z,7.97
2018-03-11T16:52:12.305Z,8.80
2018-03-11T16:54:39.925Z,8.50
2018-03-11T16:57:07.602Z,9.50
2018-03-11T16:59:35.399Z,8.70
2018-03-11T17:02:02.929Z,8.57
2018-03-11T17:04:30.497Z,9.40
2018-03-11T17:06:58.054Z,9.33
2018-03-11T17:09:25.664Z,9.70
2018-03-11T17:11:53.368Z,9.93
2018-03-11T17:14:20.906Z,9.07
2018-03-11T17:16:48.504Z,9.57
2018-03-11T17:19:16.096Z,8.43
2018-03-11T17:21:44.650Z,8.93
2018-03-11T17:24:12.197Z,9.70
2018-03-11T17:26:39.860Z,8.70
2018-03-11T17:29:07.588Z,9.60
2018-03-11T17:31:38.201Z,8.50
2018-03-11T17:34:08.913Z,9.00
2018-03-11T17:36:36.823Z,9.37
2018-03-11T17:39:05.255Z,10.03
2018-03-11T17:41:33.160Z,9.40
2018-03-11T17:44:00.726Z,11.57
2018-03-11T17:46:28.302Z,10.23
2018-03-11T17:48:56.034Z,9.63
2018-03-11T17:51:23.580Z,13.27
2018-03-11T17:53:51.105Z,10.10
2018-03-11T17:56:18.871Z,11.63
2018-03-11T17:58:46.491Z,10.40
2018-03-11T18:01:14.167Z,11.80
2018-03-11T18:03:41.737Z,10.30
2018-03-11T18:06:09.281Z,13.77
2018-03-11T18:08:37.607Z,10.23
2018-03-11T18:11:05.370Z,10.60
2018-03-11T18:13:32.947Z,10.50
2018-03-11T18:16:00.480Z,13.50
2018-03-11T18:18:28.128Z,11.10
2018-03-11T18:20:56.417Z,11.67
2018-03-11T18:23:24.487Z,12.17
2018-03-11T18:25:55.509Z,13.00
2018-03-11T18:28:23.722Z,9.30
2018-03-11T18:30:51.320Z,10.47
2018-03-11T18:33:19.664Z,19.83
2018-03-11T18:35:48.217Z,11.43
2018-03-11T18:38:15.743Z,10.97
2018-03-11T18:40:44.439Z,11.00
2018-03-11T18:43:12.756Z,9.67
2018-03-11T18:45:40.329Z,11.40
2018-03-11T18:48:08.116Z,11.57
2018-03-11T18:50:35.761Z,11.00
2018-03-11T18:53:03.354Z,11.20
2018-03-11T18:55:30.918Z,10.20
2018-03-11T18:57:58.572Z,10.40
2018-03-11T19:00:26.123Z,11.13
2018-03-11T19:02:53.693Z,11.60
2018-03-11T19:05:21.287Z,11.13
2018-03-11T19:07:48.878Z,10.87
2018-03-11T19:10:16.416Z,11.87
2018-03-11T19:12:43.938Z,11.13
2018-03-11T19:15:11.568Z,14.97
2018-03-11T19:17:39.135Z,10.50
2018-03-11T19:20:07.625Z,10.50
2018-03-11T19:22:35.440Z,10.77
2018-03-11T19:25:03.097Z,11.30
2018-03-11T19:27:30.775Z,9.80
2018-03-11T19:29:59.460Z,10.80
2018-03-11T19:32:27.247Z,12.20
2018-03-11T19:34:55.178Z,10.83
2018-03-11T19:37:23.564Z,11.77
2018-03-11T19:39:51.274Z,14.37
2018-03-11T19:42:19.125Z,13.60
2018-03-11T19:44:47.057Z,11.80
2018-03-11T19:47:14.789Z,13.27
2018-03-11T19:49:42.397Z,14.83
2018-03-11T19:52:10.278Z,12.13
2018-03-11T19:54:37.883Z,13.00
2018-03-11T19:57:05.697Z,15.30
2018-03-11T19:59:33.360Z,13.37
2018-03-11T20:02:01.424Z,12.20
2018-03-11T20:04:29.214Z,12.97
2018-03-11T20:06:56.768Z,12.13
2018-03-11T20:09:24.374Z,13.07
2018-03-11T20:11:52.064Z,13.47
2018-03-11T20:14:19.741Z,13.67
2018-03-11T20:16:47.398Z,13.10
2018-03-11T20:19:14.941Z,13.07
2018-03-11T20:21:42.503Z,13.30
2018-03-11T20:24:10.091Z,14.43
2018-03-11T20:26:37.633Z,16.03
2018-03-11T20:29:05.587Z,12.90
2018-03-11T20:31:33.431Z,13.77
2018-03-11T20:34:01.629Z,20.33
2018-03-11T20:36:30.057Z,15.57
2018-03-11T20:38:57.648Z,15.70
2018-03-11T20:41:25.377Z,13.63
2018-03-11T20:43:53.242Z,16.87
2018-03-11T20:46:21.098Z,12.43
2018-03-11T20:48:48.774Z,15.43
2018-03-11T20:51:16.641Z,13.90
2018-03-11T20:53:45.113Z,13.77
2018-03-11T20:56:12.891Z,14.37
2018-03-11T20:58:40.450Z,14.87
2018-03-11T21:01:08.057Z,14.33
2018-03-11T21:03:36.414Z,13.73
2018-03-11T21:06:04.253Z,14.70
2018-03-11T21:08:31.899Z,13.23
2018-03-11T21:10:59.580Z,14.10
2018-03-11T21:13:27.353Z,13.70
2018-03-11T21:15:54.927Z,15.57
2018-03-11T21:18:22.524Z,13.50
2018-03-11T21:20:50.224Z,13.90
2018-03-11T21:23:17.784Z,16.03
2018-03-11T21:25:46.165Z,13.03
2018-03-11T21:28:13.730Z,14.67
2018-03-11T21:30:41.470Z,14.03
2018-03-11T21:33:09.384Z,14.23
2018-03-11T21:35:37.010Z,13.90
2018-03-11T21:38:05.394Z,15.53
2018-03-11T21:40:36.678Z,14.53
2018-03-11T21:43:06.753Z,13.47
2018-03-11T21:45:35.650Z,14.60
2018-03-11T21:48:09.768Z,14.63
2018-03-11T21:50:38.878Z,14.33
2018-03-11T21:53:10.079Z,14.77
2018-03-11T21:55:39.756Z,14.87
2018-03-11T21:58:07.890Z,13.43
2018-03-11T22:00:40.569Z,15.90
2018-03-11T22:03:09.088Z,14.53
2018-03-11T22:05:38.604Z,16.80
2018-03-11T22:08:07.054Z,14.70
2018-03-11T22:10:36.072Z,15.87
2018-03-11T22:13:04.036Z,18.67
2018-03-11T22:15:32.964Z,14.30
2018-03-11T22:18:03.533Z,15.00
2018-03-11T22:20:31.994Z,15.23
2018-03-11T22:23:00.719Z,15.83
2018-03-11T22:25:29.036Z,15.23
2018-03-11T22:27:56.672Z,15.80
2018-03-11T22:30:24.287Z,14.77
2018-03-11T22:32:52.107Z,14.93
2018-03-11T22:35:19.633Z,15.80
2018-03-11T22:37:47.171Z,14.37
2018-03-11T22:40:15.259Z,15.03
2018-03-11T22:42:43.112Z,15.77
2018-03-11T22:45:11.248Z,16.57
2018-03-11T22:47:39.562Z,15.60
2018-03-11T22:50:07.061Z,15.70
2018-03-11T22:52:34.664Z,15.67
2018-03-11T22:55:02.209Z,18.27
2018-03-11T22:57:30.531Z,16.10
2018-03-11T22:59:58.057Z,15.13
2018-03-11T23:02:25.591Z,15.27
2018-03-11T23:04:53.175Z,15.83
2018-03-11T23:07:20.753Z,16.50
2018-03-11T23:09:48.308Z,15.93
2018-03-11T23:12:15.876Z,15.03
2018-03-11T23:14:43.412Z,16.67
2018-03-11T23:17:11.004Z,16.10
2018-03-11T23:19:38.523Z,15.20
2018-03-11T23:22:06.119Z,15.60
2018-03-11T23:24:33.635Z,15.47
2018-03-11T23:27:02.261Z,18.37
2018-03-11T23:29:29.794Z,15.37
2018-03-11T23:31:57.896Z,15.87
2018-03-11T23:34:25.698Z,17.43
2018-03-11T23:36:53.448Z,18.97
2018-03-11T23:39:20.940Z,17.60
2018-03-11T23:41:49.462Z,19.33
2018-03-11T23:44:17.424Z,16.47
2018-03-11T23:46:45.203Z,15.23
2018-03-11T23:49:12.715Z,16.13
2018-03-11T23:51:40.226Z,18.53
2018-03-11T23:54:08.342Z,16.90
2018-03-11T23:56:35.879Z,16.57
2018-03-11T23:59:03.402Z,16.20
